3V071 / EI-STK 7700 Squawk Report (20th of April, 2018)

Aircraft B734 Reg No. EI-STK Age 27 years old
Model 737 Jet engines 2 First flight 12-04-91
Registered 25-08-17 Rollout N/A Delivered 29-04-91
Construction No. 25052 Line No. 2036 Series 448(SF)
ADSHEX 4CA7FA Airline name ASL Airlines Ireland Owner KP Aircraft 25052 LLC
Airfield based Dublin~Co Dublin~EI First tracked 2012-05-24 18:15:02

Flight history for EI-STK

Route Flight No Date Playback
???? N/A 2018-12-11 06:15:00
???? N/A 2018-12-11 05:13:00
???? N/A 2018-12-11 02:43:00
???? N/A 2018-12-10 21:02:00
???? N/A 2018-12-10 04:40:00
???? N/A 2018-12-08 10:39:00
???? N/A 2018-12-07 11:11:00
???? N/A 2018-12-06 14:18:00
???? N/A 2018-07-03 06:42:00
Turku (TKU) - Landvetter (GOT) - Liege (LGG) 3V2711 2018-07-03 05:13:00
???? N/A 2018-07-02 01:03:00
???? 3V071 2018-06-29 21:41:00
???? 3V769 2018-06-29 06:25:00
???? N/A 2018-06-29 02:58:00
???? 3V769 2018-06-28 06:11:00
???? 3V071 2018-06-28 02:49:00
???? 3V769 2018-06-27 06:16:00
???? 3V071 2018-06-27 02:41:00
???? 3V769 2018-06-26 06:18:00
???? 3V097 2018-06-26 02:49:00
Time Lat Lon Altitude Heading Speed Vertical Rate
2018-04-20 20:04:30 GMT 59.664654 17.997026 500 257 131 -512
2018-04-20 20:04:21 GMT 59.665863 18.006781 600 257 130 -1024
2018-04-20 20:04:11 GMT 59.667252 18.018494 700 256 128 -896
2018-04-20 20:04:01 GMT 59.668797 18.030458 825 257 125 -512
2018-04-20 20:03:57 GMT 59.669128 18.033783 850 258 123 -704
2018-04-20 20:03:48 GMT 59.670471 18.044191 950 257 122 -576
2018-04-20 20:03:38 GMT 59.671684 18.054041 1,050 256 120 -640
2018-04-20 20:03:29 GMT 59.673065 18.065369 1,175 257 121 -640
2018-04-20 20:03:18 GMT 59.674301 18.075806 1,275 258 116 -576
2018-04-20 20:03:08 GMT 59.675640 18.086432 1,375 257 114 -640
2018-04-20 20:02:57 GMT 59.677002 18.096863 1,475 257 113 -640
2018-04-20 20:02:48 GMT 59.678238 18.107208 1,600 258 111 -576
2018-04-20 20:02:37 GMT 59.679272 18.117023 1,675 259 111 -640
2018-04-20 20:02:27 GMT 59.680481 18.127253 1,775 257 107 -704
2018-04-20 20:02:21 GMT 59.680984 18.132568 1,850 258 106 -768
2018-04-20 20:02:16 GMT 59.681671 18.137421 2,025 257 107 -640
2018-04-20 20:02:08 GMT 59.682495 18.145386 2,000 257 107 -640
2018-04-20 20:02:05 GMT 59.683044 18.149963 2,025 257 108 -512
2018-04-20 20:01:58 GMT 59.683731 18.155640 2,075 258 107 -512
2018-04-20 20:01:54 GMT 59.684254 18.158979 2,125 258 107 -512
2018-04-20 20:01:47 GMT 59.684921 18.165436 2,175 258 108 -512
2018-04-20 20:01:43 GMT 59.685413 18.169209 2,200 258 108 -448
2018-04-20 20:01:36 GMT 59.686298 18.177069 2,275 256 110 -384
2018-04-20 20:01:32 GMT 59.686626 18.179722 2,300 257 112 -512
2018-04-20 20:01:25 GMT 59.687485 18.187225 2,400 258 113 -832
2018-04-20 20:01:22 GMT 59.688023 18.190708 2,450 258 113 -896
2018-04-20 20:01:15 GMT 59.688675 18.197620 2,550 257 116 -960
2018-04-20 20:01:11 GMT 59.689224 18.201508 2,600 257 117 -896
2018-04-20 20:01:04 GMT 59.690048 18.208374 2,675 256 119 -640
2018-04-20 20:01:01 GMT 59.690552 18.211670 2,750 257 122 -256
2018-04-20 20:00:58 GMT 59.690910 18.215616 2,750 257 122 -256
2018-04-20 20:00:54 GMT 59.691422 18.219404 2,750 257 123 -128
2018-04-20 20:00:50 GMT 59.692120 18.224520 2,750 257 125 64
2018-04-20 20:00:46 GMT 59.692795 18.229980 2,725 256 130 320
2018-04-20 20:00:43 GMT 59.693005 18.231716 2,725 256 130 256
2018-04-20 20:00:39 GMT 59.693653 18.236643 2,725 256 134 -64
2018-04-20 20:00:34 GMT 59.694538 18.242798 2,725 256 134 -64
2018-04-20 20:00:29 GMT 59.695221 18.248932 2,725 256 135 -64
2018-04-20 20:00:23 GMT 59.696091 18.255524 2,725 257 136 -64
2018-04-20 20:00:20 GMT 59.696732 18.261017 2,725 257 137 128
2018-04-20 20:00:13 GMT 59.697601 18.268341 2,725 256 136 -64
2018-04-20 20:00:08 GMT 59.698311 18.273863 2,725 256 136 0
2018-04-20 20:00:03 GMT 59.699146 18.280397 2,725 256 136 64
2018-04-20 19:59:58 GMT 59.699844 18.286377 2,725 256 136 192
2018-04-20 19:59:53 GMT 59.700714 18.292877 2,700 257 137 64
2018-04-20 19:59:48 GMT 59.701401 18.299286 2,725 257 138 -192
2018-04-20 19:59:43 GMT 59.702267 18.305212 2,725 257 140 -128
2018-04-20 19:59:37 GMT 59.703094 18.312744 2,725 258 142 64
2018-04-20 19:59:33 GMT 59.703644 18.318146 2,725 258 142 64
2018-04-20 19:59:27 GMT 59.704468 18.325378 2,725 258 142 64
2018-04-20 19:59:22 GMT 59.705154 18.331257 2,700 258 142 -64
2018-04-20 19:59:16 GMT 59.706207 18.342316 2,725 259 146 -64
2018-04-20 19:59:12 GMT 59.706528 18.344788 2,725 259 146 -64
2018-04-20 19:59:02 GMT 59.707764 18.358154 2,725 259 146 128
2018-04-20 19:58:51 GMT 59.709110 18.371887 2,725 260 148 -256
2018-04-20 19:58:41 GMT 59.710506 18.385336 2,725 259 151 64
2018-04-20 19:58:31 GMT 59.711838 18.399536 2,725 259 149 -64
2018-04-20 19:58:21 GMT 59.713577 18.413361 2,725 257 152 192
2018-04-20 19:58:12 GMT 59.715271 18.426270 2,725 255 151 -192
2018-04-20 19:58:09 GMT 59.715637 18.429474 2,750 254 152 -128
2018-04-20 19:58:01 GMT 59.717350 18.439510 2,725 252 158 256
2018-04-20 19:57:58 GMT 59.718018 18.443756 2,725 251 158 192
2018-04-20 19:57:51 GMT 59.719894 18.453918 2,700 249 163 0
2018-04-20 19:57:47 GMT 59.720749 18.458261 2,700 248 165 -64
2018-04-20 19:57:40 GMT 59.723122 18.468870 2,725 246 168 0
2018-04-20 19:57:37 GMT 59.724014 18.472504 2,725 246 168 64
2018-04-20 19:57:30 GMT 59.726429 18.483360 2,700 246 169 -64
2018-04-20 19:57:27 GMT 59.727493 18.487427 2,700 245 171 -128
2018-04-20 19:57:19 GMT 59.731201 18.499695 2,725 233 181 -64
2018-04-20 19:57:16 GMT 59.732346 18.502350 2,725 227 186 0
2018-04-20 19:57:09 GMT 59.736671 18.510542 2,725 224 190 0
2018-04-20 19:57:06 GMT 59.738716 18.514425 2,725 224 190 0
2018-04-20 19:56:59 GMT 59.743332 18.523041 2,725 224 191 128
2018-04-20 19:56:56 GMT 59.745888 18.527590 2,725 224 191 -128
2018-04-20 19:56:52 GMT 59.748322 18.532379 2,725 224 191 -64
2018-04-20 19:56:48 GMT 59.750015 18.535583 2,725 224 193 0
2018-04-20 19:56:45 GMT 59.752636 18.540377 2,725 224 193 -64
2018-04-20 19:56:38 GMT 59.756699 18.548035 2,725 224 193 -128
2018-04-20 19:56:34 GMT 59.759262 18.552979 2,725 224 193 0
2018-04-20 19:56:28 GMT 59.763519 18.560760 2,725 224 193 64
2018-04-20 19:56:23 GMT 59.766045 18.565853 2,725 225 193 -64
2018-04-20 19:56:17 GMT 59.770111 18.573761 2,725 224 194 64
2018-04-20 19:56:13 GMT 59.772675 18.578796 2,725 224 194 64
2018-04-20 19:56:07 GMT 59.777218 18.587637 2,725 225 194 -64
2018-04-20 19:56:02 GMT 59.779495 18.591888 2,725 225 194 0
2018-04-20 19:55:56 GMT 59.783733 18.600138 2,725 225 195 0
2018-04-20 19:55:52 GMT 59.786224 18.605072 2,725 225 195 -64
2018-04-20 19:55:46 GMT 59.790619 18.613953 2,725 226 195 64
2018-04-20 19:55:41 GMT 59.793278 18.619080 2,725 226 195 0
2018-04-20 19:55:36 GMT 59.796581 18.625805 2,725 225 195 64
2018-04-20 19:55:31 GMT 59.799656 18.631865 2,725 225 195 64
2018-04-20 19:55:26 GMT 59.802635 18.637833 2,725 225 195 -64
2018-04-20 19:55:21 GMT 59.806450 18.645504 2,725 225 195 64
2018-04-20 19:55:16 GMT 59.809479 18.651566 2,725 225 195 0
2018-04-20 19:55:10 GMT 59.818359 18.669067 2,725 226 193 -64
2018-04-20 19:54:52 GMT 59.824745 18.681683 2,725 226 193 64
2018-04-20 19:54:44 GMT 59.829773 18.692196 2,725 225 190 64
2018-04-20 19:54:40 GMT 59.831818 18.696167 2,725 226 191 64
2018-04-20 19:54:31 GMT 59.837830 18.708200 2,725 226 190 0
2018-04-20 19:54:21 GMT 59.844067 18.721083 2,725 227 190 -64
2018-04-20 19:54:05 GMT 59.853748 18.740309 2,975 225 190 -1408
2018-04-20 19:54:00 GMT 59.856720 18.746429 3,100 225 188 -1600
2018-04-20 19:53:49 GMT 59.863312 18.759338 3,400 225 187 -1600
2018-04-20 19:53:43 GMT 59.867340 18.767395 3,550 225 187 -1536
2018-04-20 19:53:39 GMT 59.869766 18.772064 3,650 225 188 -1344
2018-04-20 19:53:33 GMT 59.873428 18.779388 3,800 225 189 -1472
2018-04-20 19:53:30 GMT 59.875397 18.783325 3,800 225 189 -1472
2018-04-20 19:53:27 GMT 59.876770 18.786072 3,900 226 191 -1216
2018-04-20 19:53:22 GMT 59.880112 18.792572 4,025 226 193 -1152
2018-04-20 19:53:17 GMT 59.883076 18.798555 4,100 226 194 -1152
2018-04-20 19:53:13 GMT 59.886017 18.804382 4,200 226 196 -1280
2018-04-20 19:53:08 GMT 59.892014 18.816742 4,400 226 198 -1344
2018-04-20 19:53:00 GMT 59.894249 18.821381 4,475 226 200 -1344
2018-04-20 19:52:52 GMT 59.899658 18.832214 4,600 226 207 -768
2018-04-20 19:52:45 GMT 59.904144 18.841461 4,700 227 211 -768
2018-04-20 19:52:41 GMT 59.907669 18.848877 4,750 227 213 -832
2018-04-20 19:52:32 GMT 59.913151 18.860399 4,875 227 220 -832
2018-04-20 19:52:25 GMT 59.917946 18.870628 4,950 228 223 -832
2018-04-20 19:52:20 GMT 59.921528 18.878300 5,025 228 229 -832
2018-04-20 19:52:16 GMT 59.924461 18.884741 5,100 228 233 -896
2018-04-20 19:52:11 GMT 59.928326 18.893076 5,200 228 237 -1216
2018-04-20 19:52:07 GMT 59.931335 18.899872 5,300 228 240 -1792
2018-04-20 19:52:01 GMT 59.935772 18.909269 5,500 228 241 -2176
2018-04-20 19:51:57 GMT 59.938843 18.915985 5,650 227 241 -2240
2018-04-20 19:51:51 GMT 59.943375 18.925415 5,850 227 241 -2240
2018-04-20 19:51:47 GMT 59.946526 18.932095 6,000 227 241 -2368
2018-04-20 19:51:40 GMT 59.951366 18.942513 6,275 227 239 -2368
2018-04-20 19:51:36 GMT 59.954727 18.949427 6,450 227 239 -2432
2018-04-20 19:51:29 GMT 59.959747 18.960146 6,700 227 238 -2432
2018-04-20 19:51:25 GMT 59.962727 18.966228 6,875 227 236 -2368
2018-04-20 19:51:19 GMT 59.967590 18.976419 7,100 227 236 -2304
2018-04-20 19:51:15 GMT 59.970409 18.982609 7,275 227 235 -2368
2018-04-20 19:51:09 GMT 59.975739 18.993656 7,525 227 234 -2048
2018-04-20 19:51:04 GMT 59.978371 18.999384 7,675 227 234 -1856
2018-04-20 19:51:01 GMT 59.981815 19.006838 7,775 227 236 -1728
2018-04-20 19:50:58 GMT 59.983490 19.010174 7,850 227 236 -1792
2018-04-20 19:50:54 GMT 59.986237 19.016060 7,950 227 237 -1920
2018-04-20 19:50:49 GMT 59.990021 19.023869 8,100 227 239 -1472
2018-04-20 19:50:45 GMT 59.993546 19.031446 8,225 227 240 -1472
2018-04-20 19:50:40 GMT 59.997501 19.039894 8,350 227 240 -1536
2018-04-20 19:50:35 GMT 60.000366 19.046032 8,500 227 241 -1536
2018-04-20 19:50:29 GMT 60.009155 19.064690 8,725 228 243 -1536
2018-04-20 19:50:23 GMT 60.009605 19.065693 8,750 228 243 -1536
2018-04-20 19:50:20 GMT 60.013000 19.072834 8,850 228 244 -1728
2018-04-20 19:50:13 GMT 60.017284 19.082565 9,075 261 239 -2560
2018-04-20 19:50:09 GMT 60.020546 19.090412 9,175 231 244 -1792
2018-04-20 19:50:02 GMT 60.024673 19.102098 9,350 242 242 -1920
2018-04-20 19:49:59 GMT 60.026459 19.109444 9,500 250 240 -2112
2018-04-20 19:49:54 GMT 60.028061 19.121609 9,900 272 240 -1792
2018-04-20 19:49:51 GMT 60.028275 19.127590 9,825 269 239 -2304
2018-04-20 19:49:48 GMT 60.028275 19.132004 9,900 271 240 -1920
2018-04-20 19:49:39 GMT 60.026085 19.155153 10,000 292 249 0
2018-04-20 19:49:36 GMT 60.025589 19.158167 10,000 292 249 0
2018-04-20 19:49:31 GMT 60.021881 19.170385 10,000 306 254 -64
2018-04-20 19:49:27 GMT 60.019337 19.176636 10,000 314 258 0
2018-04-20 19:49:17 GMT 60.009888 19.191221 10,000 330 269 -64
2018-04-20 19:49:06 GMT 59.998341 19.204494 10,000 331 268 -64
2018-04-20 19:48:56 GMT 59.986725 19.217646 10,000 331 267 64
2018-04-20 19:48:48 GMT 59.977798 19.227968 10,000 331 268 0
2018-04-20 19:48:45 GMT 59.975555 19.230335 10,000 331 268 64
2018-04-20 19:48:37 GMT 59.966171 19.241280 10,000 330 267 -128
2018-04-20 19:48:34 GMT 59.963985 19.243633 10,000 330 267 -128
2018-04-20 19:48:27 GMT 59.955933 19.253050 10,025 330 267 -128
2018-04-20 19:48:24 GMT 59.953308 19.256195 10,000 330 266 -128
2018-04-20 19:48:17 GMT 59.944431 19.266609 10,000 330 267 256
2018-04-20 19:48:14 GMT 59.942291 19.269262 10,000 330 266 64
2018-04-20 19:48:11 GMT 59.939079 19.272861 10,000 330 266 -64
2018-04-20 19:48:04 GMT 59.931290 19.281830 10,000 330 267 192
2018-04-20 19:48:01 GMT 59.928177 19.285583 10,000 330 268 -128
2018-04-20 19:47:54 GMT 59.920074 19.294739 10,000 330 267 0
2018-04-20 19:47:51 GMT 59.917328 19.298126 10,000 330 267 128
2018-04-20 19:47:46 GMT 59.911892 19.304495 10,000 330 267 64
2018-04-20 19:47:43 GMT 59.908859 19.307831 10,000 331 268 64
2018-04-20 19:47:40 GMT 59.906158 19.311035 10,000 330 269 64
2018-04-20 19:47:35 GMT 59.901031 19.316895 10,000 330 269 0
2018-04-20 19:47:32 GMT 59.897602 19.320784 10,000 330 269 -64
2018-04-20 19:47:29 GMT 59.893456 19.325615 10,000 330 268 -128
2018-04-20 19:47:23 GMT 59.886799 19.333380 10,025 330 268 -64
2018-04-20 19:47:20 GMT 59.884094 19.336395 10,025 330 266 -64
2018-04-20 19:47:12 GMT 59.875675 19.346167 10,000 330 267 64
2018-04-20 19:47:09 GMT 59.872463 19.349766 10,000 330 267 64
2018-04-20 19:47:02 GMT 59.864826 19.358952 10,000 330 266 64
2018-04-20 19:46:59 GMT 59.862396 19.361572 10,000 330 266 64
2018-04-20 19:46:55 GMT 59.857315 19.367432 10,000 330 266 0
2018-04-20 19:46:52 GMT 59.853561 19.371927 10,000 330 266 0
2018-04-20 19:46:48 GMT 59.847885 19.378601 10,000 330 266 0
2018-04-20 19:46:42 GMT 59.843040 19.384146 10,000 330 266 -64
2018-04-20 19:46:39 GMT 59.840286 19.387482 10,000 330 266 -64
2018-04-20 19:46:33 GMT 59.834568 19.394279 10,000 330 265 -64
2018-04-20 19:46:29 GMT 59.829403 19.399961 10,000 330 265 0
2018-04-20 19:46:24 GMT 59.823769 19.407064 10,000 330 264 0
2018-04-20 19:46:19 GMT 59.818321 19.413315 10,025 330 264 0
2018-04-20 19:46:16 GMT 59.815704 19.416412 10,025 330 262 128
2018-04-20 19:46:13 GMT 59.812737 19.419945 10,000 330 263 128
2018-04-20 19:46:10 GMT 59.809662 19.423544 10,000 330 261 64
2018-04-20 19:46:07 GMT 59.806458 19.427490 10,000 330 262 0
2018-04-20 19:46:03 GMT 59.802402 19.432352 10,000 330 261 0
2018-04-20 19:46:00 GMT 59.797932 19.437466 10,000 330 261 0
2018-04-20 19:45:57 GMT 59.796303 19.439266 10,000 330 261 0
2018-04-20 19:45:52 GMT 59.791718 19.444885 10,000 330 262 0
2018-04-20 19:45:48 GMT 59.786682 19.450653 10,000 330 262 -64
2018-04-20 19:45:43 GMT 59.781174 19.457260 10,000 330 262 0
2018-04-20 19:45:37 GMT 59.775284 19.464203 10,000 330 261 -64
2018-04-20 19:45:32 GMT 59.770187 19.470045 10,000 330 262 0
2018-04-20 19:45:27 GMT 59.765213 19.476013 10,000 330 263 64
2018-04-20 19:45:22 GMT 59.759354 19.482880 10,000 330 263 0
2018-04-20 19:45:18 GMT 59.754730 19.488420 10,000 330 263 0
2018-04-20 19:45:15 GMT 59.753174 19.490479 10,000 330 263 0
2018-04-20 19:45:12 GMT 59.748821 19.495335 10,000 330 263 0
2018-04-20 19:45:07 GMT 59.744385 19.500824 10,000 329 263 0
2018-04-20 19:45:04 GMT 59.741695 19.504047 10,000 329 263 0
2018-04-20 19:45:01 GMT 59.738159 19.508024 10,000 329 263 64
2018-04-20 19:44:58 GMT 59.733856 19.513367 10,000 330 264 -64
2018-04-20 19:44:55 GMT 59.731083 19.516739 10,000 330 264 -64
2018-04-20 19:44:51 GMT 59.727638 19.520620 10,000 330 264 0
2018-04-20 19:44:47 GMT 59.723122 19.526020 10,000 330 264 0
2018-04-20 19:44:44 GMT 59.719955 19.529715 10,000 330 264 64
2018-04-20 19:44:41 GMT 59.716690 19.533508 10,000 330 265 64
2018-04-20 19:44:37 GMT 59.712662 19.538361 10,000 330 265 0
2018-04-20 19:44:34 GMT 59.709064 19.542500 10,000 330 265 -128
2018-04-20 19:44:28 GMT 59.702454 19.549980 10,025 330 265 -64
2018-04-20 19:44:25 GMT 59.699799 19.553106 10,025 330 265 0
2018-04-20 19:44:21 GMT 59.694866 19.558884 10,025 330 264 0
2018-04-20 19:44:14 GMT 59.688629 19.566177 10,025 330 264 -64
2018-04-20 19:44:10 GMT 59.684372 19.571136 10,025 330 263 0
2018-04-20 19:44:05 GMT 59.678761 19.577826 10,025 330 262 0
2018-04-20 19:44:00 GMT 59.673477 19.583954 10,025 330 262 0
2018-04-20 19:43:54 GMT 59.666656 19.591736 10,000 330 261 0
2018-04-20 19:43:50 GMT 59.662766 19.596313 10,025 330 261 -64
2018-04-20 19:43:45 GMT 59.657112 19.603209 10,000 330 261 256
2018-04-20 19:43:39 GMT 59.651573 19.609554 10,000 329 261 -128
2018-04-20 19:43:34 GMT 59.646591 19.615709 10,000 329 261 128
2018-04-20 19:43:28 GMT 59.640701 19.622681 10,000 329 262 0
2018-04-20 19:43:23 GMT 59.635792 19.628592 10,000 329 262 -64
2018-04-20 19:43:18 GMT 59.629833 19.635788 10,000 329 262 64
2018-04-20 19:43:13 GMT 59.625130 19.641472 10,000 329 262 64
2018-04-20 19:43:08 GMT 59.615215 19.653688 10,000 328 264 0
2018-04-20 19:43:04 GMT 59.614563 19.654352 10,000 328 264 0
2018-04-20 19:42:58 GMT 59.609070 19.661171 10,000 328 263 -64
2018-04-20 19:42:53 GMT 59.604088 19.667328 10,000 328 264 -192
2018-04-20 19:42:47 GMT 59.598175 19.674774 10,000 328 264 64
2018-04-20 19:42:42 GMT 59.593243 19.680965 9,975 328 265 320
2018-04-20 19:42:37 GMT 59.588242 19.687134 9,950 329 269 0
2018-04-20 19:42:32 GMT 59.581558 19.695190 9,975 329 274 -128
2018-04-20 19:42:28 GMT 59.576855 19.700949 9,950 329 281 -64
2018-04-20 19:42:21 GMT 59.570480 19.708557 9,975 329 288 64
2018-04-20 19:42:17 GMT 59.564896 19.715424 9,975 329 295 -128
2018-04-20 19:42:11 GMT 59.558029 19.723663 10,000 329 301 -640
2018-04-20 19:42:07 GMT 59.553349 19.729267 10,050 329 305 -960
2018-04-20 19:42:00 GMT 59.544617 19.739685 10,175 329 311 -1024
2018-04-20 19:41:56 GMT 59.539993 19.745544 10,250 328 314 -960
2018-04-20 19:41:50 GMT 59.532490 19.754744 10,350 328 319 -1152
2018-04-20 19:41:47 GMT 59.527451 19.761017 10,425 328 324 -1152
2018-04-20 19:41:40 GMT 59.519550 19.770750 10,525 328 328 -1152
2018-04-20 19:41:36 GMT 59.514336 19.777380 10,625 328 331 -1216
2018-04-20 19:41:29 GMT 59.505386 19.788666 10,750 328 337 -1280
2018-04-20 19:41:26 GMT 59.501266 19.793976 10,825 328 339 -1344
2018-04-20 19:41:20 GMT 59.494446 19.802582 11,050 327 344 -1536
2018-04-20 19:41:16 GMT 59.487396 19.811646 11,125 328 347 -2112
2018-04-20 19:41:10 GMT 59.478771 19.822556 11,400 327 349 -2752
2018-04-20 19:41:05 GMT 59.473278 19.829754 11,575 327 350 -2880
2018-04-20 19:41:00 GMT 59.466431 19.838287 11,800 327 350 -2752
2018-04-20 19:40:53 GMT 59.456799 19.850494 12,175 328 351 -3200
2018-04-20 19:40:48 GMT 59.449356 19.859619 12,450 329 351 -3264
2018-04-20 19:40:43 GMT 59.442551 19.868206 12,725 328 354 -3072
2018-04-20 19:40:40 GMT 59.438919 19.872528 12,850 328 356 -3200
2018-04-20 19:40:35 GMT 59.432777 19.880045 13,100 329 357 -3264
2018-04-20 19:40:32 GMT 59.427841 19.886295 13,500 328 359 -3264
2018-04-20 19:40:29 GMT 59.424042 19.890839 13,425 328 361 -3200
2018-04-20 19:40:22 GMT 59.409176 19.909309 14,000 328 365 -3648
2018-04-20 19:40:15 GMT 59.396072 19.925812 14,575 327 368 -3264
2018-04-20 19:40:09 GMT 59.394150 19.928192 14,650 327 370 -3136
2018-04-20 19:40:02 GMT 59.384689 19.941511 15,050 321 370 -3904
2018-04-20 19:39:57 GMT 59.379868 19.950073 15,300 316 369 -3968
2018-04-20 19:39:53 GMT 59.374401 19.961685 15,600 311 368 -3968
2018-04-20 19:39:50 GMT 59.370724 19.970587 16,300 303 366 -4160
2018-04-20 19:39:47 GMT 59.368580 19.976837 15,975 303 366 -4160
2018-04-20 19:39:43 GMT 59.364811 19.990099 16,300 296 366 -4224
2018-04-20 19:39:39 GMT 59.361969 20.002533 16,750 290 366 -4160
2018-04-20 19:39:36 GMT 59.360641 20.009857 16,750 288 366 -4224
2018-04-20 19:39:30 GMT 59.357803 20.033844 17,350 278 366 -4928
2018-04-20 19:39:26 GMT 59.357254 20.043915 17,600 274 366 -4992
2018-04-20 19:39:20 GMT 59.357391 20.063141 18,200 264 367 -5184
2018-04-20 19:39:17 GMT 59.357876 20.073538 18,350 259 368 -5312
2018-04-20 19:39:13 GMT 59.358856 20.085022 18,650 256 367 -5376
2018-04-20 19:39:09 GMT 59.360733 20.097382 19,075 252 369 -5440
2018-04-20 19:39:05 GMT 59.363365 20.111515 19,425 248 370 -5504
2018-04-20 19:38:59 GMT 59.367279 20.129984 19,950 247 370 -4992
2018-04-20 19:38:54 GMT 59.370396 20.143621 20,300 247 370 -4480
2018-04-20 19:38:50 GMT 59.374168 20.160765 20,975 247 373 -3648
2018-04-20 19:38:44 GMT 59.377625 20.176575 20,975 247 377 -3520
2018-04-20 19:38:39 GMT 59.380966 20.191864 21,450 223 370 -5696
2018-04-20 19:38:36 GMT 59.383385 20.202721 21,450 247 382 -3392
2018-04-20 19:38:33 GMT 59.385246 20.210960 21,600 247 385 -3456
2018-04-20 19:38:30 GMT 59.387108 20.219011 21,750 247 387 -3520
2018-04-20 19:38:26 GMT 59.390694 20.235775 22,075 247 390 -3904
2018-04-20 19:38:21 GMT 59.393810 20.250265 22,375 247 392 -4416
2018-04-20 19:38:15 GMT 59.397957 20.268734 22,850 247 393 -5440
2018-04-20 19:38:10 GMT 59.401382 20.284424 24,375 244 387 -7232
2018-04-20 19:38:05 GMT 59.405499 20.302546 23,925 245 388 -6848
2018-04-20 19:38:02 GMT 59.408432 20.313904 24,375 243 387 -7488
2018-04-20 19:37:59 GMT 59.410034 20.319672 31,575 238 386 -7488
2018-04-20 19:37:55 GMT 59.413784 20.332474 26,500 231 384 -6208
2018-04-20 19:37:51 GMT 59.418392 20.344786 25,675 233 386 -6848
2018-04-20 19:37:48 GMT 59.422852 20.355835 31,575 231 384 -6144
2018-04-20 19:37:44 GMT 59.425236 20.361645 26,500 231 384 -6208
2018-04-20 19:37:41 GMT 59.430168 20.373293 26,775 231 383 -6016
2018-04-20 19:37:37 GMT 59.433929 20.382477 27,100 231 381 -5824
2018-04-20 19:37:33 GMT 59.438141 20.392273 27,475 231 380 -5824
2018-04-20 19:37:29 GMT 59.442505 20.402464 27,850 231 379 -5696
2018-04-20 19:37:23 GMT 59.448929 20.417522 28,400 230 376 -5824
2018-04-20 19:37:18 GMT 59.454666 20.430725 28,900 230 374 -6016
2018-04-20 19:37:14 GMT 59.460522 20.444136 29,425 229 371 -6016
2018-04-20 19:37:09 GMT 59.466480 20.457491 29,950 228 369 -5952
2018-04-20 19:37:03 GMT 59.472015 20.468903 30,425 225 369 -5888
2018-04-20 19:36:57 GMT 59.479050 20.481546 30,925 221 370 -4672
2018-04-20 19:36:53 GMT 59.485428 20.492340 31,275 221 370 -3584
2018-04-20 19:36:49 GMT 59.490688 20.501245 31,500 221 369 -2880
2018-04-20 19:36:46 GMT 59.493256 20.505432 31,725 221 369 -2368
2018-04-20 19:36:42 GMT 59.498657 20.514404 31,725 221 369 -2176
2018-04-20 19:36:36 GMT 59.507126 20.528503 31,925 220 370 -1536
2018-04-20 19:36:32 GMT 59.512383 20.536951 31,975 220 370 -384
2018-04-20 19:36:28 GMT 59.518059 20.546139 32,000 220 370 64
2018-04-20 19:36:25 GMT 59.520859 20.550659 32,000 220 371 64
2018-04-20 19:36:22 GMT 59.525646 20.558355 32,000 220 371 0
2018-04-20 19:36:18 GMT 59.531467 20.567732 32,000 220 371 0
2018-04-20 19:36:15 GMT 59.534912 20.573273 32,000 220 371 0
2018-04-20 19:36:11 GMT 59.540546 20.582224 32,000 220 371 -64
2018-04-20 19:36:05 GMT 59.548504 20.595102 32,000 220 372 64
2018-04-20 19:36:01 GMT 59.553497 20.603119 32,000 220 372 64
2018-04-20 19:35:54 GMT 59.563076 20.618498 32,000 220 370 -64
2018-04-20 19:35:51 GMT 59.567032 20.624842 32,000 220 372 64
2018-04-20 19:35:47 GMT 59.572666 20.633934 32,000 220 371 -64
2018-04-20 19:35:44 GMT 59.576569 20.640381 32,000 220 370 -64
2018-04-20 19:35:41 GMT 59.580441 20.646626 32,000 220 370 704
2018-04-20 19:35:36 GMT 59.585861 20.655579 32,000 220 370 192
2018-04-20 19:35:31 GMT 59.594826 20.670208 31,925 220 369 960
2018-04-20 19:35:28 GMT 59.596848 20.673340 31,900 221 368 1600
2018-04-20 19:35:24 GMT 59.604172 20.685425 31,775 220 368 1664
2018-04-20 19:35:20 GMT 59.607330 20.690735 31,700 220 369 1664
2018-04-20 19:35:15 GMT 59.614197 20.702087 31,575 220 369 1536
2018-04-20 19:35:10 GMT 59.620800 20.712921 31,350 220 369 1600
2018-04-20 19:35:07 GMT 59.624908 20.719849 31,350 220 369 1600
2018-04-20 19:35:04 GMT 59.629181 20.726654 31,275 221 369 1664
2018-04-20 19:34:58 GMT 59.636536 20.739166 31,100 221 369 1664
2018-04-20 19:34:55 GMT 59.640564 20.746033 31,025 221 369 1664
2018-04-20 19:34:49 GMT 59.647987 20.758287 30,875 221 369 1536
2018-04-20 19:34:45 GMT 59.653702 20.768005 30,750 221 369 1536
2018-04-20 19:34:42 GMT 59.659058 20.777069 30,650 221 369 1664
2018-04-20 19:34:37 GMT 59.664188 20.785564 30,525 221 370 1728
2018-04-20 19:34:34 GMT 59.667435 20.791168 30,450 221 370 1728
2018-04-20 19:34:29 GMT 59.674622 20.803253 30,300 221 370 1728
2018-04-20 19:34:25 GMT 59.680435 20.813219 30,175 221 370 1792
2018-04-20 19:34:19 GMT 59.688023 20.826006 29,975 221 371 1920
2018-04-20 19:34:14 GMT 59.693665 20.835297 29,850 221 372 1920
2018-04-20 19:34:09 GMT 59.700031 20.845800 29,550 220 374 1920
2018-04-20 19:34:06 GMT 59.704128 20.852808 29,600 220 374 1984
2018-04-20 19:34:03 GMT 59.707623 20.858492 29,500 220 374 1984
2018-04-20 19:33:58 GMT 59.715179 20.870911 29,300 220 376 2112
2018-04-20 19:33:54 GMT 59.720169 20.879333 28,925 220 377 2368
2018-04-20 19:33:49 GMT 59.727730 20.891451 28,975 220 377 2368
2018-04-20 19:33:45 GMT 59.732479 20.899500 28,825 220 378 2432
2018-04-20 19:33:41 GMT 59.737228 20.907267 28,725 220 381 2240
2018-04-20 19:33:36 GMT 59.744724 20.919674 28,450 221 382 2240
2018-04-20 19:33:32 GMT 59.749191 20.927441 28,325 221 382 2240
2018-04-20 19:33:27 GMT 59.756313 20.938900 28,075 220 383 2304
2018-04-20 19:33:24 GMT 59.762180 20.948750 27,950 221 383 2432
2018-04-20 19:33:16 GMT 59.771210 20.963808 27,700 220 386 2304
2018-04-20 19:33:13 GMT 59.776520 20.972626 27,550 221 386 2432
2018-04-20 19:33:05 GMT 59.785782 20.988243 26,825 221 390 2432
2018-04-20 19:33:02 GMT 59.791275 20.997335 27,100 221 389 2496
2018-04-20 19:32:55 GMT 59.800095 21.011993 26,825 221 391 2432
2018-04-20 19:32:50 GMT 59.806637 21.022907 26,650 221 392 2304
2018-04-20 19:32:45 GMT 59.813713 21.034935 26,450 221 392 2176
2018-04-20 19:32:40 GMT 59.820976 21.046774 25,975 220 393 2176
2018-04-20 19:32:35 GMT 59.828430 21.059509 26,075 220 393 2176
2018-04-20 19:32:29 GMT 59.836121 21.072144 25,875 220 393 2048
2018-04-20 19:32:25 GMT 59.842484 21.082575 25,750 220 393 1984
2018-04-20 19:32:21 GMT 59.848022 21.091919 25,600 220 393 2048
2018-04-20 19:32:14 GMT 59.857086 21.107025 25,375 221 393 1984
2018-04-20 19:32:09 GMT 59.865326 21.120850 25,200 221 392 1984
2018-04-20 19:32:04 GMT 59.871140 21.130646 24,950 221 392 1920
2018-04-20 19:32:00 GMT 59.876678 21.140076 24,925 221 392 1920
2018-04-20 19:31:57 GMT 59.880066 21.145477 24,850 221 391 1856
2018-04-20 19:31:53 GMT 59.885742 21.154999 24,700 221 391 1984
2018-04-20 19:31:50 GMT 59.890663 21.163267 24,600 221 390 1792
2018-04-20 19:31:47 GMT 59.893970 21.168856 24,525 221 390 1728
2018-04-20 19:31:43 GMT 59.900532 21.180124 24,375 221 388 1792
2018-04-20 19:31:40 GMT 59.904190 21.186218 24,225 221 388 1728
2018-04-20 19:31:37 GMT 59.908310 21.193085 24,225 221 387 1728
2018-04-20 19:31:30 GMT 59.919479 21.212219 23,975 221 385 1920
2018-04-20 19:31:26 GMT 59.922646 21.217346 23,900 221 384 1984
2018-04-20 19:31:22 GMT 59.927952 21.226439 23,750 221 384 1984
2018-04-20 19:31:17 GMT 59.935772 21.239603 23,500 221 383 1984
2018-04-20 19:31:13 GMT 59.941589 21.249573 23,425 221 383 1984
2018-04-20 19:31:08 GMT 59.947861 21.260101 23,200 221 382 2240
2018-04-20 19:31:05 GMT 59.951019 21.265686 23,175 221 382 2368
2018-04-20 19:31:02 GMT 59.955597 21.273130 23,050 221 381 2496
2018-04-20 19:30:57 GMT 59.963470 21.286768 22,800 221 381 2432
2018-04-20 19:30:54 GMT 59.966812 21.292452 22,700 221 381 2432
2018-04-20 19:30:51 GMT 59.970268 21.298468 22,600 221 381 2432
2018-04-20 19:30:47 GMT 59.976105 21.308079 22,175 221 380 2496
2018-04-20 19:30:42 GMT 59.983677 21.321323 22,200 221 380 2432
2018-04-20 19:30:38 GMT 59.987076 21.327110 22,100 221 380 2496
2018-04-20 19:30:34 GMT 59.993500 21.337912 21,900 221 380 2688
2018-04-20 19:30:31 GMT 59.997360 21.344475 21,750 221 380 2688
2018-04-20 19:30:28 GMT 60.000641 21.350035 21,650 221 380 2624
2018-04-20 19:30:24 GMT 60.006859 21.360561 21,450 221 380 2560
2018-04-20 19:30:16 GMT 60.018265 21.379885 21,025 221 380 2496
2018-04-20 19:30:13 GMT 60.020920 21.384508 20,975 221 380 2560
2018-04-20 19:30:05 GMT 60.032730 21.404493 20,625 221 379 2240
2018-04-20 19:30:02 GMT 60.035294 21.408943 20,550 221 379 2304
2018-04-20 19:29:51 GMT 60.049732 21.433640 20,125 221 376 2368
2018-04-20 19:29:41 GMT 60.063000 21.456202 19,725 221 374 2368
2018-04-20 19:29:31 GMT 60.076828 21.479645 19,325 221 373 2432
2018-04-20 19:29:21 GMT 60.090794 21.503677 18,900 221 370 2304
2018-04-20 19:29:09 GMT 60.105469 21.529036 18,500 221 365 1984
2018-04-20 19:28:59 GMT 60.117508 21.549871 18,175 221 360 1920
2018-04-20 19:28:49 GMT 60.130829 21.573076 17,825 221 355 2240
2018-04-20 19:28:39 GMT 60.143024 21.594021 17,350 221 353 3072
2018-04-20 19:28:29 GMT 60.156006 21.616358 16,800 221 353 3264
2018-04-20 19:28:18 GMT 60.169231 21.639046 16,250 221 353 3072
2018-04-20 19:28:10 GMT 60.178345 21.654810 15,850 221 353 3008
2018-04-20 19:28:07 GMT 60.182922 21.662670 15,675 221 353 2944
2018-04-20 19:27:55 GMT 60.196976 21.686916 15,125 221 351 2880
2018-04-20 19:27:45 GMT 60.209976 21.708891 14,650 218 350 2560
2018-04-20 19:27:35 GMT 60.222767 21.727327 14,225 215 349 2688
2018-04-20 19:27:32 GMT 60.226227 21.732187 14,100 215 349 2688
2018-04-20 19:27:26 GMT 60.235977 21.745447 13,775 214 346 2816
2018-04-20 19:27:23 GMT 60.239365 21.750088 13,650 214 345 2944
2018-04-20 19:27:13 GMT 60.252281 21.767349 13,175 214 343 2944
2018-04-20 19:27:01 GMT 60.267563 21.787878 12,600 214 343 3008
2018-04-20 19:26:51 GMT 60.281097 21.806488 12,075 215 341 2944
2018-04-20 19:26:42 GMT 60.293655 21.823677 11,650 215 338 2624
2018-04-20 19:26:30 GMT 60.307617 21.842999 11,350 215 331 960
2018-04-20 19:26:21 GMT 60.319736 21.860243 11,175 215 318 960
2018-04-20 19:26:10 GMT 60.332291 21.877756 11,000 215 305 1024
2018-04-20 19:25:59 GMT 60.344315 21.894672 10,825 215 288 1088
2018-04-20 19:25:49 GMT 60.355534 21.910465 10,625 215 277 1152
2018-04-20 19:25:39 GMT 60.365982 21.925207 10,375 215 265 2176
2018-04-20 19:25:28 GMT 60.376621 21.939993 9,900 215 262 2816
2018-04-20 19:25:17 GMT 60.387268 21.954947 9,375 215 260 2880
2018-04-20 19:25:07 GMT 60.397476 21.969248 8,850 215 259 3072
2018-04-20 19:24:55 GMT 60.409302 21.985899 8,225 215 259 3328
2018-04-20 19:24:45 GMT 60.419544 22.000319 7,675 215 259 3136

Making use of Plane Finder data

You are free to use the raw flight data, aircraft information and images provided in this report for your own purposes provided the data is correctly attributed to Plane Finder. We ask that you please credit Plane Finder and link to planefinder.net in close proximity to the content.

Optionally one of the following logos (no smaller then 150x24px) can be used and must link to planefinder.net

Embedding the Plane Finder map

You are welcome to embed the Plane Finder playback map on your website to offer visitors a more interactive experience. We suggest using the following HTML code:

<iframe src="//planefinder.net/data/report/3V071-EI-STK-7700-squawk-2018-04-20/map" width="800" height="600" seamless="seamless"></iframe>

Where our data comes from

Plane Finder has a global network of data feeds and antenna radars that receive data broadcast directly from aircraft. The primary technologies used are ADS-B and MLAT. We also show feeds from the FAA and a FLARM glider feed.

Click here to find out more about the Plane Finder network.

How we collect our data